SBOSBO CUN / MMUN
Speedbird OnlineSpeedbird Online CUN / MMUN

Cancún International Airport
09:06 26°C

Location Cancun, Mexico
Latitude: 21.036500930800003
Longitude: -86.8770980835
Web Airport Website | Wikipedia
Altitude 7 Meter / 22 Feet
Distance 7,990 KM / 4,965 Miles
from London.
Time Zone UTC -5 hours (America/Cancun)
Codes IATA: CUN
ICAO: MMUN
Currency £1 equals MXN 23.17
Runways
RunwayLength (m)Surface
12L2800Asphalt
12R3500Asphalt
30L3500Asphalt
30R2800Asphalt
Radio
TypeDescriptionFrequency
APPAPP120.4
ARRARR120.4
ATISATIS127.7
CLDCLNC DEL122.1
DEPDEP119.8
GNDGND121.7
TWR NorthTower North118.1
TWR STower South118.6
Live ATC
METAR MMUN 311252Z 09004KT 7SM SCT015 22/21 A3008 RMK 8/100 MDT CU
TAF TAF MMUN 311041Z 3112/0112 12005KT P6SM SCT015 TX28/3119Z TN23/3112Z FM311800 11012KT P6SM BKN015 TEMPO 3123/0103 BKN015CB FM010600 09005KT P6SM SCT015
Weather As Of 31 Jan 2023 09:06
Description Scattered clouds
Wind 9 km/h from South-East (140°)
Cloud Cover 40%
Precipitation Rain: none, Snow: none
Sunrise 07:24
Sunset 18:36
Lounges Mera Business Lounge , Terminal 3, Departure level
Rotations During the last 90 days there were
86 flights from LGW
86 flights to LGW



Support Speedbird Online

© 2017-2023 Speedbird Online